Time;durP1;ratioP1;P1;durP2;ratioP2;P2;SDS_P1;SDS_P2;PMS_P1;PMS_P2;Temp;Humidity;BMP_temperature;BMP_pressure;BME280_temperature;BME280_humidity;BME280_pressure;Samples;Min_cycle;Max_cycle;Signal;HPM_P1;HPM_P2
2023/08/27 00:00:45;;;;;;;3.80;3.53;;;14.90;99.90;;;;;;5047593;28;20503;-62
2023/08/27 00:03:12;;;;;;;3.63;3.10;;;14.90;99.90;;;;;;5047594;28;20476;-62
2023/08/27 00:05:43;;;;;;;3.77;3.47;;;14.90;99.90;;;;;;5047919;28;20457;-62
2023/08/27 00:08:10;;;;;;;6.10;3.40;;;14.90;99.90;;;;;;5047133;28;20462;-62
2023/08/27 00:10:39;;;;;;;3.27;3.03;;;14.90;99.90;;;;;;5051128;28;20593;-62
2023/08/27 00:13:05;;;;;;;3.87;3.53;;;14.80;99.90;;;;;;5051435;28;20812;-62
2023/08/27 00:15:32;;;;;;;4.57;3.20;;;14.80;99.90;;;;;;5051315;28;20531;-62
2023/08/27 00:17:59;;;;;;;3.27;2.90;;;14.80;99.90;;;;;;5050910;28;20442;-62
2023/08/27 00:20:26;;;;;;;3.80;3.40;;;14.80;99.90;;;;;;5051561;28;20448;-63
2023/08/27 00:22:53;;;;;;;5.50;3.80;;;14.80;99.90;;;;;;5050790;28;20560;-62
2023/08/27 00:25:20;;;;;;;5.20;3.80;;;14.80;99.90;;;;;;5051423;28;20457;-62
2023/08/27 00:27:48;;;;;;;4.73;3.70;;;14.80;99.90;;;;;;5050445;28;20457;-62
2023/08/27 00:30:15;;;;;;;3.77;3.50;;;14.80;99.90;;;;;;5050903;28;20455;-62
2023/08/27 00:32:42;;;;;;;6.37;3.80;;;14.80;99.90;;;;;;5051177;28;20441;-62
2023/08/27 00:35:09;;;;;;;3.50;3.23;;;14.90;99.90;;;;;;5051096;28;20453;-62
2023/08/27 00:37:36;;;;;;;3.67;3.37;;;14.80;99.90;;;;;;5050551;28;20541;-63
2023/08/27 00:40:04;;;;;;;3.40;3.10;;;14.80;99.90;;;;;;5051189;28;20445;-62
2023/08/27 00:42:31;;;;;;;3.90;3.03;;;14.80;99.90;;;;;;5051154;28;20492;-62
2023/08/27 00:44:59;;;;;;;4.87;3.50;;;14.70;99.90;;;;;;5050860;28;20446;-62
2023/08/27 00:47:26;;;;;;;3.27;3.07;;;14.80;99.90;;;;;;5049696;28;20534;-62
2023/08/27 00:49:53;;;;;;;3.73;3.43;;;14.80;99.90;;;;;;5049490;28;20814;-62
2023/08/27 00:52:21;;;;;;;4.90;3.30;;;14.80;99.90;;;;;;5050865;28;20534;-63
2023/08/27 00:54:50;;;;;;;3.73;3.03;;;14.80;99.90;;;;;;5050344;28;20469;-62
2023/08/27 00:57:19;;;;;;;3.97;3.63;;;14.80;99.90;;;;;;5049760;28;20454;-62
2023/08/27 00:59:47;;;;;;;4.50;4.10;;;14.80;99.90;;;;;;5050594;28;20560;-62
2023/08/27 01:02:16;;;;;;;4.80;3.37;;;14.80;99.90;;;;;;5050527;28;20587;-63
2023/08/27 01:07:16;;;;;;;4.23;3.73;;;14.80;99.90;;;;;;5037391;22;20499;-64
2023/08/27 01:09:51;;;;;;;4.43;3.10;;;14.80;99.90;;;;;;5013953;28;20489;-64
2023/08/27 01:12:24;;;;;;;3.57;3.27;;;14.80;99.90;;;;;;5010857;28;20446;-64
2023/08/27 01:14:53;;;;;;;3.30;2.77;;;14.80;99.90;;;;;;5010767;28;20536;-64
2023/08/27 01:17:23;;;;;;;4.17;3.77;;;14.80;99.90;;;;;;5010012;28;20520;-65
2023/08/27 01:19:50;;;;;;;3.10;2.90;;;14.80;99.90;;;;;;5011596;28;20463;-64
2023/08/27 01:22:18;;;;;;;3.30;2.93;;;14.80;99.90;;;;;;5010159;28;20489;-65
2023/08/27 01:24:45;;;;;;;3.90;3.13;;;14.80;99.90;;;;;;5010488;28;20552;-64
2023/08/27 01:27:16;;;;;;;3.73;3.43;;;14.80;99.90;;;;;;5017635;28;20447;-65
2023/08/27 01:29:48;;;;;;;6.30;3.57;;;14.80;99.90;;;;;;5010347;28;20522;-64
2023/08/27 01:32:24;;;;;;;3.63;3.30;;;14.90;99.90;;;;;;5010365;28;20541;-65
2023/08/27 01:34:53;;;;;;;3.50;2.80;;;14.90;99.90;;;;;;5010149;28;20460;-64
2023/08/27 01:37:21;;;;;;;5.90;3.73;;;14.90;99.90;;;;;;5011183;28;20968;-64
2023/08/27 01:39:58;;;;;;;4.30;3.93;;;14.90;99.90;;;;;;5010765;28;20533;-64
2023/08/27 01:42:25;;;;;;;3.30;3.00;;;14.90;99.90;;;;;;5010414;28;20493;-64
2023/08/27 01:44:52;;;;;;;6.70;4.07;;;14.90;99.90;;;;;;5010402;28;21288;-64
2023/08/27 01:47:19;;;;;;;3.00;2.80;;;14.90;99.90;;;;;;5009231;28;20450;-64
2023/08/27 01:49:46;;;;;;;4.80;3.30;;;14.90;99.90;;;;;;5010209;28;21015;-64
2023/08/27 01:52:13;;;;;;;5.70;3.40;;;14.90;99.90;;;;;;5009851;28;20446;-65
2023/08/27 01:54:41;;;;;;;4.23;3.13;;;14.90;99.90;;;;;;5010095;28;20458;-64
2023/08/27 01:57:08;;;;;;;2.90;2.70;;;15.00;99.90;;;;;;5008989;28;20500;-64
2023/08/27 01:59:35;;;;;;;5.17;3.17;;;15.00;99.90;;;;;;5009878;28;20446;-64
2023/08/27 02:02:02;;;;;;;4.20;3.10;;;15.00;99.90;;;;;;5009503;28;21041;-64
2023/08/27 02:04:29;;;;;;;4.57;3.63;;;14.90;99.90;;;;;;5009880;28;20457;-64
2023/08/27 02:06:56;;;;;;;4.73;3.10;;;14.90;99.90;;;;;;5008502;28;20488;-64
2023/08/27 02:09:23;;;;;;;7.43;3.30;;;14.90;99.90;;;;;;5012305;28;20942;-64
2023/08/27 02:11:51;;;;;;;3.67;3.27;;;14.90;99.90;;;;;;5009697;28;20442;-64
2023/08/27 02:14:18;;;;;;;4.53;3.10;;;14.90;99.90;;;;;;5009606;28;20452;-64
2023/08/27 02:16:45;;;;;;;3.50;3.20;;;15.00;99.90;;;;;;5009060;28;20480;-64
2023/08/27 02:19:12;;;;;;;4.07;3.57;;;15.00;99.90;;;;;;5009498;28;20451;-64
2023/08/27 02:21:38;;;;;;;3.30;3.10;;;15.00;99.90;;;;;;5009508;28;20564;-64
2023/08/27 02:24:06;;;;;;;3.77;3.43;;;15.00;99.90;;;;;;5009495;28;20446;-64
2023/08/27 02:26:32;;;;;;;3.90;3.60;;;15.00;99.90;;;;;;5008354;28;20502;-64
2023/08/27 02:29:01;;;;;;;4.20;3.80;;;15.00;99.90;;;;;;5009231;28;20457;-64
2023/08/27 02:31:28;;;;;;;4.10;3.80;;;15.00;99.90;;;;;;5008646;28;20458;-65
2023/08/27 02:33:55;;;;;;;4.47;4.07;;;15.10;99.90;;;;;;5009384;28;20574;-64
2023/08/27 02:36:22;;;;;;;3.53;3.20;;;15.00;99.90;;;;;;5008553;28;20480;-64
2023/08/27 02:38:49;;;;;;;4.00;3.57;;;15.00;99.90;;;;;;5009267;28;20961;-64
2023/08/27 02:41:15;;;;;;;4.70;4.30;;;15.00;99.90;;;;;;5008961;28;20458;-64
2023/08/27 02:43:42;;;;;;;6.73;3.77;;;15.00;99.90;;;;;;5008922;28;20442;-64
2023/08/27 02:46:11;;;;;;;7.60;4.03;;;15.10;99.90;;;;;;5008326;28;20898;-64
2023/08/27 02:48:37;;;;;;;4.63;4.23;;;15.10;99.90;;;;;;5008753;28;20451;-64
2023/08/27 02:51:04;;;;;;;4.20;3.80;;;15.10;99.90;;;;;;5009280;28;20540;-64
2023/08/27 02:53:31;;;;;;;5.40;4.63;;;15.20;99.90;;;;;;5008898;28;20981;-64
2023/08/27 02:55:58;;;;;;;4.70;4.30;;;15.20;99.90;;;;;;5008079;28;20469;-64
2023/08/27 02:58:25;;;;;;;4.97;3.87;;;15.20;99.90;;;;;;5009121;28;20939;-64
2023/08/27 03:00:51;;;;;;;4.40;4.00;;;15.20;99.90;;;;;;5016480;28;21251;-65
2023/08/27 03:03:20;;;;;;;10.77;5.20;;;15.20;99.90;;;;;;5008608;28;20573;-64
2023/08/27 03:05:47;;;;;;;5.60;5.10;;;15.20;99.90;;;;;;5008512;28;20482;-64
2023/08/27 03:08:14;;;;;;;5.17;4.63;;;15.20;99.90;;;;;;5008286;28;20453;-64
2023/08/27 03:10:41;;;;;;;5.83;5.23;;;15.20;99.90;;;;;;5008840;28;20449;-64
2023/08/27 03:13:08;;;;;;;5.43;5.00;;;15.20;99.90;;;;;;5008439;28;21242;-64
2023/08/27 03:15:34;;;;;;;4.00;3.67;;;15.20;99.90;;;;;;5008645;28;20476;-64
2023/08/27 03:18:01;;;;;;;6.60;5.40;;;15.20;99.90;;;;;;5007864;28;20456;-65
2023/08/27 03:20:29;;;;;;;3.40;3.20;;;15.20;99.90;;;;;;5005299;28;20465;-65
2023/08/27 03:22:56;;;;;;;4.87;3.80;;;15.20;99.90;;;;;;5008139;28;20497;-65
2023/08/27 03:25:23;;;;;;;3.40;3.20;;;15.10;99.90;;;;;;5007909;28;20484;-64
2023/08/27 03:27:50;;;;;;;5.60;4.07;;;15.10;99.90;;;;;;5007781;28;20462;-64
2023/08/27 03:30:17;;;;;;;3.60;3.30;;;15.10;99.90;;;;;;5008236;28;20459;-64
2023/08/27 03:32:43;;;;;;;4.13;3.80;;;15.10;99.90;;;;;;5008447;28;20534;-64
2023/08/27 03:35:11;;;;;;;4.00;3.70;;;15.20;99.90;;;;;;5008310;28;20475;-64
2023/08/27 03:37:39;;;;;;;4.23;3.83;;;15.20;99.90;;;;;;5007784;28;20870;-64
2023/08/27 03:40:07;;;;;;;5.47;4.00;;;15.20;99.90;;;;;;5008226;28;20453;-64
2023/08/27 03:42:34;;;;;;;3.80;3.50;;;15.20;99.90;;;;;;5008635;28;20576;-64
2023/08/27 03:45:01;;;;;;;3.90;3.60;;;15.20;99.90;;;;;;5012271;28;20443;-64
2023/08/27 03:47:28;;;;;;;7.23;4.57;;;15.30;99.90;;;;;;5011616;28;20450;-64
2023/08/27 03:49:55;;;;;;;3.70;3.33;;;15.40;99.90;;;;;;5012047;28;20453;-64
2023/08/27 03:52:22;;;;;;;3.87;3.57;;;15.30;99.90;;;;;;5011992;28;20549;-65
2023/08/27 03:54:50;;;;;;;4.40;4.10;;;15.40;99.90;;;;;;5012083;28;20533;-64
2023/08/27 03:57:17;;;;;;;6.63;4.43;;;15.40;99.90;;;;;;5011245;28;20480;-64
2023/08/27 03:59:44;;;;;;;4.57;4.20;;;15.40;99.90;;;;;;5011800;28;20448;-65
2023/08/27 04:02:11;;;;;;;4.50;4.10;;;15.40;99.90;;;;;;5016612;28;21022;-64
2023/08/27 04:04:39;;;;;;;4.20;3.83;;;15.40;99.90;;;;;;5014012;28;20449;-64
2023/08/27 04:07:05;;;;;;;4.83;4.50;;;15.40;99.90;;;;;;5013944;28;20905;-65
2023/08/27 04:09:33;;;;;;;3.67;2.93;;;15.40;99.90;;;;;;5011421;28;20452;-65
2023/08/27 04:12:02;;;;;;;7.27;3.80;;;15.40;99.90;;;;;;5011513;28;20515;-64
2023/08/27 04:14:29;;;;;;;6.37;5.80;;;15.40;99.90;;;;;;5011917;28;20454;-64
2023/08/27 04:16:56;;;;;;;4.30;3.57;;;15.40;99.90;;;;;;5010792;28;20578;-64
2023/08/27 04:19:22;;;;;;;4.87;4.57;;;15.40;99.90;;;;;;5011534;28;21117;-64
2023/08/27 04:21:49;;;;;;;4.00;3.70;;;15.40;99.90;;;;;;5011727;28;20461;-64
2023/08/27 04:24:16;;;;;;;4.27;2.80;;;15.40;99.90;;;;;;5011457;28;20453;-64
2023/08/27 04:26:43;;;;;;;5.03;4.10;;;15.40;99.90;;;;;;5010934;28;20481;-64
2023/08/27 04:29:11;;;;;;;4.33;3.97;;;15.40;99.90;;;;;;5011794;28;20450;-64
2023/08/27 04:31:38;;;;;;;4.40;4.00;;;15.40;99.90;;;;;;5017916;28;20489;-64
2023/08/27 04:34:05;;;;;;;4.30;3.90;;;15.30;99.90;;;;;;5011199;28;20453;-64
2023/08/27 04:36:32;;;;;;;4.40;4.10;;;15.40;99.90;;;;;;5010619;28;20472;-65
2023/08/27 04:38:59;;;;;;;6.07;4.13;;;15.40;99.90;;;;;;5011101;28;20450;-64
2023/08/27 04:41:25;;;;;;;4.50;4.13;;;15.40;99.90;;;;;;5011007;28;20451;-64
2023/08/27 04:43:52;;;;;;;4.73;4.40;;;15.40;99.90;;;;;;5011166;28;20490;-65
2023/08/27 04:46:20;;;;;;;4.93;4.33;;;15.40;99.90;;;;;;5010156;28;20469;-64
2023/08/27 04:48:47;;;;;;;4.70;4.40;;;15.50;99.90;;;;;;5011077;28;20954;-65
2023/08/27 04:51:16;;;;;;;4.53;4.23;;;15.50;99.90;;;;;;5011137;28;20460;-64
2023/08/27 04:53:42;;;;;;;7.03;4.50;;;15.50;99.90;;;;;;5011172;28;20527;-65
2023/08/27 04:56:09;;;;;;;4.20;3.80;;;15.50;99.90;;;;;;5009768;28;21421;-64
2023/08/27 04:58:36;;;;;;;4.33;3.97;;;15.50;99.90;;;;;;5011250;28;20452;-64
2023/08/27 05:01:03;;;;;;;4.53;4.20;;;15.50;99.90;;;;;;5010820;28;20946;-64
2023/08/27 05:03:31;;;;;;;4.80;4.40;;;15.60;99.90;;;;;;5011024;28;20485;-64
2023/08/27 05:05:58;;;;;;;4.47;4.03;;;15.60;99.90;;;;;;5009932;28;20485;-64
2023/08/27 05:08:24;;;;;;;5.43;4.30;;;15.60;99.90;;;;;;5010677;28;20462;-63
2023/08/27 05:10:51;;;;;;;7.97;4.87;;;15.60;99.90;;;;;;5010587;28;20545;-64
2023/08/27 05:13:18;;;;;;;5.37;4.87;;;15.60;99.90;;;;;;5010712;28;20819;-64
2023/08/27 05:15:45;;;;;;;5.10;4.57;;;15.50;99.90;;;;;;5010510;28;20842;-64
2023/08/27 05:18:12;;;;;;;5.87;5.30;;;15.50;99.90;;;;;;5010071;28;20576;-64
2023/08/27 05:20:40;;;;;;;4.43;4.13;;;15.50;99.90;;;;;;5010673;28;20451;-63
2023/08/27 05:23:07;;;;;;;5.23;4.53;;;15.50;99.90;;;;;;5010467;28;20603;-63
2023/08/27 05:25:34;;;;;;;4.50;4.20;;;15.50;99.90;;;;;;5010414;28;20467;-63
2023/08/27 05:28:01;;;;;;;5.50;5.10;;;15.50;99.90;;;;;;5010082;28;20459;-63
2023/08/27 05:30:28;;;;;;;7.13;5.70;;;15.50;99.90;;;;;;5016320;28;20531;-63
2023/08/27 05:32:55;;;;;;;4.87;4.47;;;15.50;99.90;;;;;;5010401;28;20975;-63
2023/08/27 05:35:24;;;;;;;4.40;4.10;;;15.50;99.90;;;;;;5010403;28;20473;-63
2023/08/27 05:37:52;;;;;;;4.73;4.43;;;15.50;99.90;;;;;;5009234;28;20454;-63
2023/08/27 05:40:19;;;;;;;5.40;4.90;;;15.50;99.90;;;;;;5010185;28;20447;-63
2023/08/27 05:42:45;;;;;;;5.10;4.70;;;15.50;99.90;;;;;;5009828;28;20602;-63
2023/08/27 05:45:12;;;;;;;5.00;4.60;;;15.40;99.90;;;;;;5010100;28;20562;-63
2023/08/27 05:47:39;;;;;;;5.23;4.70;;;15.50;99.90;;;;;;5008897;28;20541;-63
2023/08/27 05:50:06;;;;;;;5.90;5.40;;;15.50;99.90;;;;;;5010113;28;20541;-63
2023/08/27 05:52:33;;;;;;;6.60;5.50;;;15.50;99.90;;;;;;5010119;28;20533;-63
2023/08/27 05:55:02;;;;;;;5.50;5.10;;;15.60;99.90;;;;;;5009971;28;20456;-63
2023/08/27 05:57:28;;;;;;;6.20;5.70;;;15.60;99.90;;;;;;5009046;28;20467;-63
2023/08/27 05:59:55;;;;;;;6.17;5.57;;;15.60;99.90;;;;;;5010111;28;20455;-63
2023/08/27 06:02:22;;;;;;;7.37;5.17;;;15.60;99.90;;;;;;5009416;28;20460;-63
2023/08/27 06:04:49;;;;;;;5.77;5.10;;;15.70;99.90;;;;;;5009168;28;20939;-63
2023/08/27 06:07:16;;;;;;;4.97;4.57;;;15.70;99.90;;;;;;5008773;28;20456;-63
2023/08/27 06:09:43;;;;;;;6.10;5.70;;;15.70;99.90;;;;;;5009598;28;20476;-63
2023/08/27 06:12:11;;;;;;;6.13;5.53;;;15.70;99.90;;;;;;5009493;28;20457;-62
2023/08/27 06:14:38;;;;;;;9.50;6.47;;;15.70;99.90;;;;;;5009749;28;20478;-63
2023/08/27 06:17:04;;;;;;;6.47;5.97;;;15.70;99.90;;;;;;5008876;28;20877;-63
2023/08/27 06:19:31;;;;;;;7.37;6.77;;;15.80;99.90;;;;;;5009474;28;20955;-63
2023/08/27 06:21:58;;;;;;;6.07;5.60;;;15.80;99.90;;;;;;5009707;28;20455;-63
2023/08/27 06:24:25;;;;;;;10.77;5.67;;;15.80;99.90;;;;;;5009299;28;20482;-63
2023/08/27 06:26:52;;;;;;;8.30;6.07;;;15.80;99.90;;;;;;5008873;28;20471;-63
2023/08/27 06:29:20;;;;;;;6.73;6.13;;;15.80;99.90;;;;;;5009479;28;20454;-63
2023/08/27 06:31:47;;;;;;;6.70;6.20;;;15.80;99.90;;;;;;5009475;28;20545;-63
2023/08/27 06:34:13;;;;;;;5.80;5.23;;;15.90;99.90;;;;;;5009295;28;20490;-62
2023/08/27 06:36:40;;;;;;;8.63;5.60;;;15.90;99.90;;;;;;5005149;28;21150;-62
2023/08/27 06:39:07;;;;;;;5.40;5.03;;;15.90;99.90;;;;;;4998337;28;20443;-62
2023/08/27 06:41:34;;;;;;;7.13;6.63;;;16.00;99.90;;;;;;4996418;28;20451;-62
2023/08/27 06:44:01;;;;;;;6.07;5.47;;;16.00;99.90;;;;;;4989750;28;20497;-62
2023/08/27 06:46:29;;;;;;;7.00;6.50;;;16.00;99.90;;;;;;4988599;28;20512;-62
2023/08/27 06:48:56;;;;;;;7.50;6.80;;;16.10;99.90;;;;;;5004552;28;20530;-62
2023/08/27 06:51:23;;;;;;;7.43;6.70;;;16.10;99.90;;;;;;5009097;28;20450;-62
2023/08/27 06:53:50;;;;;;;8.77;7.93;;;16.10;99.90;;;;;;5009050;28;20469;-62
2023/08/27 06:56:18;;;;;;;7.60;6.90;;;16.10;99.90;;;;;;5008086;28;20477;-62
2023/08/27 06:58:44;;;;;;;9.77;8.87;;;16.20;99.90;;;;;;5008842;28;20469;-62
2023/08/27 07:01:12;;;;;;;9.23;8.33;;;16.20;99.90;;;;;;5008723;28;20533;-61
2023/08/27 07:03:40;;;;;;;9.33;8.50;;;16.20;99.90;;;;;;5008642;28;20716;-61
2023/08/27 07:06:06;;;;;;;8.87;8.17;;;16.20;99.90;;;;;;5007616;28;20478;-62
2023/08/27 07:08:33;;;;;;;9.17;7.77;;;16.30;99.90;;;;;;5008482;28;20462;-62
2023/08/27 07:11:00;;;;;;;8.77;7.87;;;16.30;99.90;;;;;;5008874;28;20543;-62
2023/08/27 07:13:27;;;;;;;20.33;10.60;;;16.30;99.90;;;;;;5008790;28;20890;-61
2023/08/27 07:15:54;;;;;;;11.20;8.10;;;16.40;99.90;;;;;;5008326;28;20483;-62
2023/08/27 07:18:21;;;;;;;9.70;8.70;;;16.40;99.90;;;;;;5007947;28;20886;-62
2023/08/27 07:20:51;;;;;;;9.50;8.70;;;16.40;99.90;;;;;;5014483;28;20570;-62
2023/08/27 07:23:18;;;;;;;10.57;8.80;;;16.50;99.90;;;;;;5008295;28;20510;-62
2023/08/27 07:25:45;;;;;;;10.70;9.70;;;16.50;99.90;;;;;;5008481;28;20557;-62
2023/08/27 07:28:12;;;;;;;9.33;8.50;;;16.50;99.90;;;;;;5014159;28;20448;-62
2023/08/27 07:30:39;;;;;;;9.20;8.30;;;16.60;99.90;;;;;;5008334;28;20979;-62
2023/08/27 07:33:06;;;;;;;11.33;10.40;;;16.60;99.90;;;;;;5045850;22;20509;-63
2023/08/27 07:35:33;;;;;;;11.40;10.43;;;16.60;99.90;;;;;;5028091;28;20451;-63
2023/08/27 07:38:01;;;;;;;11.03;9.87;;;16.60;99.90;;;;;;5020504;28;20793;-63
2023/08/27 07:40:29;;;;;;;8.97;8.07;;;16.60;99.90;;;;;;5027246;28;20449;-63
2023/08/27 07:42:56;;;;;;;10.93;9.83;;;16.70;99.90;;;;;;5028418;28;20501;-63
2023/08/27 07:45:23;;;;;;;11.17;9.63;;;16.70;99.90;;;;;;5027609;28;20450;-63
2023/08/27 07:47:50;;;;;;;12.73;11.47;;;16.70;99.90;;;;;;5027738;28;20454;-63
2023/08/27 07:50:17;;;;;;;15.20;10.03;;;16.70;99.90;;;;;;5028227;28;20451;-63
2023/08/27 07:52:44;;;;;;;11.87;10.77;;;16.80;99.90;;;;;;5028005;28;20467;-63
2023/08/27 07:55:12;;;;;;;13.20;12.00;;;16.90;99.90;;;;;;5028191;28;20841;-64
2023/08/27 07:57:39;;;;;;;10.97;9.83;;;16.80;99.90;;;;;;5027365;28;20451;-63
2023/08/27 08:00:07;;;;;;;12.00;11.00;;;16.90;99.90;;;;;;5028006;28;20465;-63
2023/08/27 08:02:34;;;;;;;13.00;11.90;;;16.90;99.90;;;;;;5025805;28;20908;-63
2023/08/27 08:05:02;;;;;;;11.67;10.57;;;17.00;99.90;;;;;;5026568;28;20490;-63
2023/08/27 08:07:28;;;;;;;12.63;11.50;;;17.00;99.90;;;;;;5026076;28;20444;-63
2023/08/27 08:09:55;;;;;;;12.60;11.50;;;17.10;99.90;;;;;;5025635;28;20456;-63
2023/08/27 08:12:23;;;;;;;12.30;11.30;;;17.10;99.90;;;;;;5027576;28;20474;-63
2023/08/27 08:14:50;;;;;;;12.50;11.33;;;17.20;99.90;;;;;;5027936;28;20443;-63
2023/08/27 08:17:17;;;;;;;13.30;12.10;;;17.20;99.90;;;;;;5027034;28;20831;-63
2023/08/27 08:19:44;;;;;;;13.20;11.90;;;17.20;99.90;;;;;;5027969;28;20455;-63
2023/08/27 08:22:11;;;;;;;11.57;10.60;;;17.30;99.90;;;;;;5027686;28;20468;-63
2023/08/27 08:24:37;;;;;;;12.97;11.67;;;17.40;99.90;;;;;;5027625;28;21012;-63
2023/08/27 08:27:06;;;;;;;14.47;13.27;;;17.40;99.90;;;;;;5026584;28;20452;-63
2023/08/27 08:29:34;;;;;;;11.80;10.80;;;17.50;99.90;;;;;;5027697;28;20490;-63
2023/08/27 08:32:01;;;;;;;14.07;12.33;;;17.50;99.90;;;;;;5031209;28;21084;-63
2023/08/27 08:34:28;;;;;;;13.10;12.10;;;17.50;99.90;;;;;;5031621;28;20817;-63
2023/08/27 08:36:55;;;;;;;11.90;10.90;;;17.50;99.90;;;;;;5030135;28;20991;-63
2023/08/27 08:39:23;;;;;;;11.87;10.87;;;17.50;99.90;;;;;;5030981;28;20448;-63
2023/08/27 08:41:59;;;;;;;12.43;11.33;;;17.50;99.90;;;;;;5030077;28;20885;-63
2023/08/27 08:44:33;;;;;;;12.50;11.30;;;17.50;99.90;;;;;;5030624;28;20496;-63
2023/08/27 08:47:03;;;;;;;13.07;11.87;;;17.50;99.90;;;;;;5029684;28;20554;-63
2023/08/27 08:49:33;;;;;;;11.97;10.90;;;17.50;99.90;;;;;;5027487;28;21084;-63
2023/08/27 08:52:06;;;;;;;13.47;12.33;;;17.50;99.90;;;;;;5029481;28;20482;-63
2023/08/27 08:54:35;;;;;;;12.20;11.00;;;17.60;99.90;;;;;;5030173;28;20530;-63
2023/08/27 08:57:03;;;;;;;11.33;10.23;;;17.60;99.90;;;;;;5029634;28;21019;-63
2023/08/27 08:59:31;;;;;;;10.50;9.57;;;17.50;99.90;;;;;;5030449;28;20459;-63
2023/08/27 09:01:59;;;;;;;11.27;10.17;;;17.50;99.90;;;;;;5030376;28;20470;-63
2023/08/27 09:04:28;;;;;;;11.73;10.73;;;17.50;99.90;;;;;;5030385;28;20587;-63
2023/08/27 09:06:55;;;;;;;12.53;11.43;;;17.50;99.90;;;;;;5029874;28;20808;-63
2023/08/27 09:09:24;;;;;;;17.00;12.57;;;17.50;99.90;;;;;;5022667;28;20945;-63
2023/08/27 09:11:52;;;;;;;11.90;10.60;;;17.50;99.90;;;;;;5010598;28;20936;-63
2023/08/27 09:14:22;;;;;;;11.87;10.87;;;17.50;99.90;;;;;;5013755;28;20471;-63
2023/08/27 09:16:49;;;;;;;13.00;11.80;;;17.60;99.90;;;;;;5018913;28;21019;-62
2023/08/27 09:19:16;;;;;;;12.67;11.47;;;17.60;99.90;;;;;;5016707;28;20455;-63
2023/08/27 09:21:44;;;;;;;11.50;10.50;;;17.60;99.90;;;;;;5010387;28;20587;-63
2023/08/27 09:24:12;;;;;;;12.13;11.00;;;17.70;99.90;;;;;;5024802;28;20909;-63
2023/08/27 09:26:39;;;;;;;12.30;11.00;;;17.70;99.90;;;;;;5029171;28;20544;-63
2023/08/27 09:29:08;;;;;;;12.03;10.57;;;17.80;99.90;;;;;;5029639;28;20452;-63
2023/08/27 09:31:39;;;;;;;10.37;9.53;;;17.80;99.90;;;;;;5029842;28;20949;-63
2023/08/27 09:34:06;;;;;;;11.00;10.10;;;17.90;99.90;;;;;;5030000;28;20538;-63
2023/08/27 09:36:33;;;;;;;12.67;11.50;;;17.90;99.90;;;;;;5028950;28;20451;-63
2023/08/27 09:39:07;;;;;;;10.67;9.87;;;18.00;99.90;;;;;;5030133;28;20570;-63
2023/08/27 09:41:37;;;;;;;10.63;9.73;;;18.10;99.90;;;;;;5029290;28;20454;-63
2023/08/27 09:44:04;;;;;;;10.00;9.10;;;18.20;99.90;;;;;;5029558;28;20495;-63
2023/08/27 09:46:31;;;;;;;10.23;8.87;;;18.20;99.90;;;;;;5028704;28;20447;-63
2023/08/27 09:49:00;;;;;;;10.90;9.87;;;18.30;99.90;;;;;;5029328;28;21026;-63
2023/08/27 09:51:28;;;;;;;9.03;8.33;;;18.30;99.90;;;;;;5029304;28;20463;-63
2023/08/27 09:53:55;;;;;;;8.23;7.53;;;18.30;99.90;;;;;;5028170;28;20456;-64
2023/08/27 09:56:25;;;;;;;9.50;8.57;;;18.40;99.90;;;;;;5028587;28;20448;-63
2023/08/27 09:58:53;;;;;;;9.43;8.73;;;18.40;99.90;;;;;;5029404;28;20444;-63
2023/08/27 10:01:22;;;;;;;8.10;7.40;;;18.40;99.90;;;;;;5029268;28;20468;-63
2023/08/27 10:03:49;;;;;;;7.17;6.67;;;18.50;99.90;;;;;;5029266;28;21245;-63
2023/08/27 10:06:16;;;;;;;6.47;5.97;;;18.50;99.90;;;;;;5028646;28;20497;-63
2023/08/27 10:08:47;;;;;;;7.80;7.20;;;18.50;99.90;;;;;;5029130;28;20826;-63
2023/08/27 10:11:15;;;;;;;7.83;6.87;;;18.60;99.90;;;;;;5029002;28;20828;-63
2023/08/27 10:13:44;;;;;;;7.70;6.87;;;18.70;99.90;;;;;;5028759;28;20511;-63
2023/08/27 10:16:11;;;;;;;8.27;5.83;;;18.70;99.90;;;;;;5028205;28;20454;-63
2023/08/27 10:18:39;;;;;;;5.97;5.47;;;18.80;99.90;;;;;;5028862;28;20448;-63
2023/08/27 10:21:08;;;;;;;4.57;4.23;;;18.90;99.90;;;;;;5028655;28;20452;-63
2023/08/27 10:23:38;;;;;;;6.40;5.90;;;18.90;99.90;;;;;;5029122;28;20472;-63
2023/08/27 10:26:06;;;;;;;4.80;4.40;;;19.10;99.90;;;;;;5025366;28;20811;-63
2023/08/27 10:28:34;;;;;;;4.97;4.57;;;19.10;99.90;;;;;;5028427;28;20487;-63
2023/08/27 10:31:03;;;;;;;4.47;4.07;;;19.20;99.90;;;;;;5028046;28;20460;-63
2023/08/27 10:33:30;;;;;;;4.37;4.07;;;19.40;99.90;;;;;;5028187;28;20487;-63
2023/08/27 10:36:00;;;;;;;4.93;4.50;;;19.50;99.90;;;;;;5028271;28;20441;-63
2023/08/27 10:38:29;;;;;;;5.07;4.77;;;19.60;99.90;;;;;;5028767;28;20441;-63
2023/08/27 10:40:56;;;;;;;4.13;3.83;;;19.70;99.90;;;;;;5027799;28;20451;-63
2023/08/27 10:43:23;;;;;;;4.90;4.50;;;19.80;99.90;;;;;;5028687;28;20488;-63
2023/08/27 10:45:51;;;;;;;3.67;3.37;;;19.90;99.90;;;;;;5028097;28;20484;-63
2023/08/27 10:48:30;;;;;;;5.40;4.23;;;20.00;99.90;;;;;;5027930;28;20849;-63
2023/08/27 10:51:10;;;;;;;4.57;3.50;;;20.10;99.90;;;;;;5027943;28;20507;-63
2023/08/27 10:53:41;;;;;;;6.23;3.73;;;20.10;99.90;;;;;;5027448;28;20477;-63
2023/08/27 10:56:28;;;;;;;3.80;3.50;;;20.20;99.90;;;;;;5027401;28;20938;-63
2023/08/27 10:58:58;;;;;;;2.80;2.70;;;20.20;99.90;;;;;;5027702;28;21215;-63
2023/08/27 11:01:25;;;;;;;2.97;2.70;;;20.20;99.90;;;;;;5027987;28;20827;-63
2023/08/27 11:03:56;;;;;;;3.50;3.30;;;20.30;99.90;;;;;;5028140;28;20441;-63
2023/08/27 11:06:41;;;;;;;4.03;3.73;;;20.30;99.90;;;;;;5027757;28;20446;-63
2023/08/27 11:09:15;;;;;;;4.13;3.73;;;20.40;99.90;;;;;;5028033;28;20834;-63
2023/08/27 11:11:49;;;;;;;3.93;3.70;;;20.40;99.90;;;;;;5027838;28;20469;-63
2023/08/27 11:14:17;;;;;;;2.80;2.60;;;20.60;99.90;;;;;;5027951;28;20874;-63
2023/08/27 11:16:45;;;;;;;3.27;3.00;;;20.70;99.90;;;;;;5027090;28;20450;-63
2023/08/27 11:19:14;;;;;;;2.80;2.60;;;20.80;99.90;;;;;;5027927;28;20561;-63
2023/08/27 11:21:45;;;;;;;3.57;3.30;;;20.80;99.90;;;;;;5027666;28;20527;-63
2023/08/27 11:24:21;;;;;;;2.70;2.47;;;20.80;99.90;;;;;;5028200;28;21117;-63
2023/08/27 11:26:48;;;;;;;3.13;2.93;;;20.90;99.90;;;;;;5027153;28;20449;-63
2023/08/27 11:29:16;;;;;;;3.10;3.00;;;21.00;99.90;;;;;;5027452;28;20535;-63
2023/08/27 11:31:45;;;;;;;3.30;2.90;;;21.10;99.90;;;;;;5027413;28;20569;-63
2023/08/27 11:34:14;;;;;;;3.50;3.20;;;21.20;99.90;;;;;;5027982;28;20790;-63
2023/08/27 11:36:43;;;;;;;4.70;3.33;;;21.30;99.90;;;;;;5026900;28;20442;-64
2023/08/27 11:39:14;;;;;;;3.33;3.13;;;21.40;99.90;;;;;;5027491;28;20451;-63
2023/08/27 11:41:43;;;;;;;3.20;3.00;;;21.60;99.90;;;;;;5027440;28;20520;-63
2023/08/27 11:44:11;;;;;;;2.80;2.60;;;21.70;99.90;;;;;;5027648;28;20465;-63
2023/08/27 11:46:38;;;;;;;3.00;2.67;;;21.80;99.90;;;;;;5026650;28;20454;-63
2023/08/27 11:49:05;;;;;;;3.23;3.00;;;21.90;99.90;;;;;;5027504;28;20447;-63
2023/08/27 11:51:34;;;;;;;3.13;2.93;;;22.00;99.90;;;;;;5027185;28;20551;-63
2023/08/27 11:54:05;;;;;;;2.40;2.30;;;22.20;99.90;;;;;;5027706;28;20457;-63
2023/08/27 11:56:35;;;;;;;3.63;2.40;;;22.20;99.90;;;;;;5027109;28;20446;-63
2023/08/27 11:59:03;;;;;;;2.53;2.33;;;22.20;99.90;;;;;;5027450;28;21055;-63
2023/08/27 12:01:30;;;;;;;2.60;2.40;;;22.30;99.90;;;;;;5027613;28;20479;-64
2023/08/27 12:03:57;;;;;;;2.60;2.40;;;22.40;99.90;;;;;;5028276;28;20530;-63
2023/08/27 12:06:26;;;;;;;2.20;2.10;;;22.50;99.90;;;;;;5030491;28;20487;-63
2023/08/27 12:08:55;;;;;;;2.47;2.20;;;22.60;99.90;;;;;;5031255;28;20919;-63
2023/08/27 12:11:25;;;;;;;3.03;2.57;;;22.80;99.90;;;;;;5031187;28;20497;-63
2023/08/27 12:13:55;;;;;;;2.63;2.43;;;22.90;99.90;;;;;;5030905;28;20876;-63
2023/08/27 12:16:28;;;;;;;2.40;2.17;;;23.00;99.90;;;;;;5030495;28;20930;-63
2023/08/27 12:19:01;;;;;;;2.70;2.53;;;23.10;99.90;;;;;;5031063;28;20452;-63
2023/08/27 12:21:28;;;;;;;2.97;2.77;;;23.20;99.90;;;;;;5031588;28;20523;-64
2023/08/27 12:23:56;;;;;;;3.47;2.13;;;23.30;99.90;;;;;;5015200;28;20822;-64
2023/08/27 12:26:23;;;;;;;2.50;2.03;;;23.20;99.90;;;;;;5030213;28;20579;-64
2023/08/27 12:28:53;;;;;;;2.40;2.20;;;23.30;99.90;;;;;;5030944;28;20449;-64
2023/08/27 12:31:24;;;;;;;2.93;2.60;;;23.40;99.90;;;;;;5031017;28;20459;-64
2023/08/27 12:33:56;;;;;;;2.90;2.70;;;23.50;99.90;;;;;;5030518;28;20441;-64
2023/08/27 12:36:24;;;;;;;2.13;2.03;;;23.60;99.90;;;;;;5030018;28;20447;-64
2023/08/27 12:38:51;;;;;;;2.40;2.20;;;23.80;99.90;;;;;;5022372;28;20449;-65
2023/08/27 12:41:19;;;;;;;1.80;1.70;;;23.90;99.90;;;;;;5027261;28;20523;-64
2023/08/27 12:43:46;;;;;;;2.20;2.10;;;24.00;99.90;;;;;;5029550;28;20479;-64
2023/08/27 12:46:13;;;;;;;2.27;2.07;;;24.00;99.90;;;;;;5029763;28;20488;-64
2023/08/27 12:48:40;;;;;;;2.07;1.90;;;24.00;99.90;;;;;;5030752;28;20988;-64